Buckden, United Kingdom
Current Conditions -  °F | °C
As of 11:50 AM on Wednesday 28 Jan 2015 (Local Time) from EGSC Reporting Station
Light Rain Light Rain  
Wind Chill: 29°   Ceiling: 2200
Heat Index: 39°   Visibility: 6mi
Dew Point: 37°   Wind: 23mph
Humidity: 93%   Direction: 270°W
Pressure: 29.44"   Gusts: 40mph
Location:  52.29°N, 0.25°W
Report Text: EGSC 281150Z 27020G35KT 240V300 9999 4000E -RA FEW002 OVC022CB 04/03 Q0997 RETS RERA
Loading
Personal Weather Stations






























Interactive Weather Map New forecast layout! Learn more

10-Day Weather Forecast

Advertisements
Track Severe Weather on mobile